Terminal Aerodrome Forecast
Issued by NWS Shreveport, LA

Home | Current Version | Previous Version | Text Only | Print | Product List | Glossary On
Versions: 1 2 3 4 5 6 7 8 9 10 11 12 13 14 15 16 17 18 19 20
993
FTUS44 KSHV 290525
TAFTXK
TAF
KTXK 290525Z 2906/3006 20004KT P6SM SCT180 BKN250
      TEMPO 2909/2913 5SM BR BKN005
     FM291300 21005KT P6SM SCT010 SCT250
     FM291600 22007KT P6SM SCT035 SCT250
     FM291800 22008KT P6SM SCT045 SCT250
     FM300000 19006KT P6SM FEW060 SCT250=

USA.gov is the U.S. government's official web portal to all federal, state and local government web resources and services.